sensor_id;sensor_type;location;lat;lon;timestamp;temperature;humidity
43884;DHT22;71973;52.018;5.810;2024-02-21T00:00:50;18.30;60.70
43884;DHT22;71973;52.018;5.810;2024-02-21T00:03:15;18.30;60.70
43884;DHT22;71973;52.018;5.810;2024-02-21T00:05:41;18.30;60.80
43884;DHT22;71973;52.018;5.810;2024-02-21T00:08:06;18.30;60.90
43884;DHT22;71973;52.018;5.810;2024-02-21T00:10:32;18.30;60.90
43884;DHT22;71973;52.018;5.810;2024-02-21T00:12:58;18.20;60.80
43884;DHT22;71973;52.018;5.810;2024-02-21T00:15:27;18.20;60.90
43884;DHT22;71973;52.018;5.810;2024-02-21T00:17:52;18.20;60.90
43884;DHT22;71973;52.018;5.810;2024-02-21T00:20:19;18.20;60.90
43884;DHT22;71973;52.018;5.810;2024-02-21T00:22:45;18.10;60.90
43884;DHT22;71973;52.018;5.810;2024-02-21T00:25:11;18.00;60.80
43884;DHT22;71973;52.018;5.810;2024-02-21T00:27:36;18.10;60.90
43884;DHT22;71973;52.018;5.810;2024-02-21T00:30:02;18.10;61.60
43884;DHT22;71973;52.018;5.810;2024-02-21T00:32:28;18.10;61.00
43884;DHT22;71973;52.018;5.810;2024-02-21T00:34:54;18.00;61.00
43884;DHT22;71973;52.018;5.810;2024-02-21T00:37:19;18.00;61.00
43884;DHT22;71973;52.018;5.810;2024-02-21T00:39:45;18.00;61.10
43884;DHT22;71973;52.018;5.810;2024-02-21T00:42:10;18.00;61.10
43884;DHT22;71973;52.018;5.810;2024-02-21T00:44:36;18.00;61.00
43884;DHT22;71973;52.018;5.810;2024-02-21T00:47:02;18.00;61.10
43884;DHT22;71973;52.018;5.810;2024-02-21T00:49:27;18.00;61.10
43884;DHT22;71973;52.018;5.810;2024-02-21T00:51:53;17.90;61.10
43884;DHT22;71973;52.018;5.810;2024-02-21T00:54:18;17.90;61.10
43884;DHT22;71973;52.018;5.810;2024-02-21T00:56:44;17.90;61.20
43884;DHT22;71973;52.018;5.810;2024-02-21T00:59:10;17.90;61.20
43884;DHT22;71973;52.018;5.810;2024-02-21T01:01:35;17.90;61.30
43884;DHT22;71973;52.018;5.810;2024-02-21T01:04:01;17.80;61.20
43884;DHT22;71973;52.018;5.810;2024-02-21T01:06:26;17.90;61.30
43884;DHT22;71973;52.018;5.810;2024-02-21T01:08:52;17.80;61.30
43884;DHT22;71973;52.018;5.810;2024-02-21T01:11:18;17.80;61.30
43884;DHT22;71973;52.018;5.810;2024-02-21T01:13:44;17.70;61.30
43884;DHT22;71973;52.018;5.810;2024-02-21T01:16:09;17.80;61.40
43884;DHT22;71973;52.018;5.810;2024-02-21T01:18:37;17.80;61.40
43884;DHT22;71973;52.018;5.810;2024-02-21T01:21:04;17.70;61.40
43884;DHT22;71973;52.018;5.810;2024-02-21T01:23:33;17.80;61.50
43884;DHT22;71973;52.018;5.810;2024-02-21T01:25:59;17.70;61.50
43884;DHT22;71973;52.018;5.810;2024-02-21T01:28:24;17.70;61.50
43884;DHT22;71973;52.018;5.810;2024-02-21T01:30:50;17.60;61.40
43884;DHT22;71973;52.018;5.810;2024-02-21T01:33:15;17.60;61.40
43884;DHT22;71973;52.018;5.810;2024-02-21T01:35:41;17.70;61.50
43884;DHT22;71973;52.018;5.810;2024-02-21T01:38:06;17.70;61.50
43884;DHT22;71973;52.018;5.810;2024-02-21T01:40:32;17.60;61.40
43884;DHT22;71973;52.018;5.810;2024-02-21T01:42:58;17.70;61.60
43884;DHT22;71973;52.018;5.810;2024-02-21T01:45:23;17.60;61.50
43884;DHT22;71973;52.018;5.810;2024-02-21T01:47:49;17.50;61.60
43884;DHT22;71973;52.018;5.810;2024-02-21T01:50:16;17.60;61.70
43884;DHT22;71973;52.018;5.810;2024-02-21T01:52:42;17.60;61.70
43884;DHT22;71973;52.018;5.810;2024-02-21T01:55:10;17.50;61.60
43884;DHT22;71973;52.018;5.810;2024-02-21T01:57:36;17.50;61.60
43884;DHT22;71973;52.018;5.810;2024-02-21T02:00:02;17.50;61.70
43884;DHT22;71973;52.018;5.810;2024-02-21T02:02:29;17.50;61.70
43884;DHT22;71973;52.018;5.810;2024-02-21T02:04:55;17.50;61.70
43884;DHT22;71973;52.018;5.810;2024-02-21T02:07:21;17.50;61.80
43884;DHT22;71973;52.018;5.810;2024-02-21T02:09:47;17.50;61.70
43884;DHT22;71973;52.018;5.810;2024-02-21T02:12:12;17.40;61.70
43884;DHT22;71973;52.018;5.810;2024-02-21T02:14:38;17.50;61.80
43884;DHT22;71973;52.018;5.810;2024-02-21T02:17:03;17.50;61.80
43884;DHT22;71973;52.018;5.810;2024-02-21T02:19:29;17.40;61.80
43884;DHT22;71973;52.018;5.810;2024-02-21T02:22:00;17.40;61.80
43884;DHT22;71973;52.018;5.810;2024-02-21T02:24:30;17.40;61.80
43884;DHT22;71973;52.018;5.810;2024-02-21T02:26:56;17.40;61.80
43884;DHT22;71973;52.018;5.810;2024-02-21T02:29:21;17.40;61.80
43884;DHT22;71973;52.018;5.810;2024-02-21T02:31:48;17.40;61.80
43884;DHT22;71973;52.018;5.810;2024-02-21T02:34:14;17.30;61.80
43884;DHT22;71973;52.018;5.810;2024-02-21T02:36:40;17.30;61.80
43884;DHT22;71973;52.018;5.810;2024-02-21T02:39:05;17.30;61.80
43884;DHT22;71973;52.018;5.810;2024-02-21T02:41:38;17.30;61.90
43884;DHT22;71973;52.018;5.810;2024-02-21T02:44:03;17.30;61.90
43884;DHT22;71973;52.018;5.810;2024-02-21T02:46:29;17.30;61.90
43884;DHT22;71973;52.018;5.810;2024-02-21T02:48:54;17.30;61.90
43884;DHT22;71973;52.018;5.810;2024-02-21T02:51:20;17.30;61.90
43884;DHT22;71973;52.018;5.810;2024-02-21T02:53:45;17.30;62.60
43884;DHT22;71973;52.018;5.810;2024-02-21T02:56:17;17.30;62.00
43884;DHT22;71973;52.018;5.810;2024-02-21T02:58:43;17.20;61.90
43884;DHT22;71973;52.018;5.810;2024-02-21T03:01:09;17.20;61.90
43884;DHT22;71973;52.018;5.810;2024-02-21T03:03:35;17.20;61.80
43884;DHT22;71973;52.018;5.810;2024-02-21T03:06:01;17.20;62.00
43884;DHT22;71973;52.018;5.810;2024-02-21T03:08:26;17.20;61.90
43884;DHT22;71973;52.018;5.810;2024-02-21T03:10:52;17.20;61.90
43884;DHT22;71973;52.018;5.810;2024-02-21T03:13:17;17.30;62.00
43884;DHT22;71973;52.018;5.810;2024-02-21T03:15:43;17.20;62.10
43884;DHT22;71973;52.018;5.810;2024-02-21T03:18:09;17.10;62.00
43884;DHT22;71973;52.018;5.810;2024-02-21T03:20:34;17.20;62.00
43884;DHT22;71973;52.018;5.810;2024-02-21T03:23:00;17.20;62.00
43884;DHT22;71973;52.018;5.810;2024-02-21T03:25:25;17.10;62.00
43884;DHT22;71973;52.018;5.810;2024-02-21T03:27:51;17.10;62.00
43884;DHT22;71973;52.018;5.810;2024-02-21T03:30:17;17.10;62.00
43884;DHT22;71973;52.018;5.810;2024-02-21T03:32:42;17.10;62.10
43884;DHT22;71973;52.018;5.810;2024-02-21T03:35:08;17.10;62.00
43884;DHT22;71973;52.018;5.810;2024-02-21T03:37:34;17.10;62.10
43884;DHT22;71973;52.018;5.810;2024-02-21T03:39:59;17.10;62.00
43884;DHT22;71973;52.018;5.810;2024-02-21T03:42:25;17.10;62.10
43884;DHT22;71973;52.018;5.810;2024-02-21T03:44:50;17.10;62.10
43884;DHT22;71973;52.018;5.810;2024-02-21T03:47:16;17.00;62.10
43884;DHT22;71973;52.018;5.810;2024-02-21T03:49:42;17.10;62.80
43884;DHT22;71973;52.018;5.810;2024-02-21T03:52:07;17.10;62.20
43884;DHT22;71973;52.018;5.810;2024-02-21T03:54:34;17.00;62.00
43884;DHT22;71973;52.018;5.810;2024-02-21T03:56:59;17.00;62.10
43884;DHT22;71973;52.018;5.810;2024-02-21T03:59:25;17.00;62.10
43884;DHT22;71973;52.018;5.810;2024-02-21T04:01:53;17.00;62.10
43884;DHT22;71973;52.018;5.810;2024-02-21T04:04:20;17.00;62.10
43884;DHT22;71973;52.018;5.810;2024-02-21T04:06:47;17.00;62.00
43884;DHT22;71973;52.018;5.810;2024-02-21T04:09:12;17.00;62.20
43884;DHT22;71973;52.018;5.810;2024-02-21T04:11:38;17.00;62.20
43884;DHT22;71973;52.018;5.810;2024-02-21T04:14:03;17.00;62.10
43884;DHT22;71973;52.018;5.810;2024-02-21T04:16:29;17.00;62.20
43884;DHT22;71973;52.018;5.810;2024-02-21T04:18:54;17.00;62.20
43884;DHT22;71973;52.018;5.810;2024-02-21T04:21:20;17.00;62.10
43884;DHT22;71973;52.018;5.810;2024-02-21T04:23:46;16.90;62.10
43884;DHT22;71973;52.018;5.810;2024-02-21T04:26:11;16.90;62.20
43884;DHT22;71973;52.018;5.810;2024-02-21T04:28:37;16.90;62.10
43884;DHT22;71973;52.018;5.810;2024-02-21T04:31:03;17.00;62.20
43884;DHT22;71973;52.018;5.810;2024-02-21T04:33:29;16.90;62.10
43884;DHT22;71973;52.018;5.810;2024-02-21T04:35:54;16.90;62.20
43884;DHT22;71973;52.018;5.810;2024-02-21T04:38:20;16.90;62.10
43884;DHT22;71973;52.018;5.810;2024-02-21T04:40:46;16.80;62.20
43884;DHT22;71973;52.018;5.810;2024-02-21T04:43:11;16.80;62.20
43884;DHT22;71973;52.018;5.810;2024-02-21T04:45:37;16.80;61.70
43884;DHT22;71973;52.018;5.810;2024-02-21T04:48:03;16.80;62.20
43884;DHT22;71973;52.018;5.810;2024-02-21T04:50:29;16.80;62.20
43884;DHT22;71973;52.018;5.810;2024-02-21T04:52:54;16.80;62.20
43884;DHT22;71973;52.018;5.810;2024-02-21T04:55:20;16.80;62.80
43884;DHT22;71973;52.018;5.810;2024-02-21T04:57:45;16.80;62.20
43884;DHT22;71973;52.018;5.810;2024-02-21T05:00:11;16.80;62.20
43884;DHT22;71973;52.018;5.810;2024-02-21T05:02:37;16.80;62.20
43884;DHT22;71973;52.018;5.810;2024-02-21T05:05:02;16.90;62.30
43884;DHT22;71973;52.018;5.810;2024-02-21T05:07:28;16.80;62.10
43884;DHT22;71973;52.018;5.810;2024-02-21T05:09:54;16.80;62.20
43884;DHT22;71973;52.018;5.810;2024-02-21T05:12:19;16.60;62.10
43884;DHT22;71973;52.018;5.810;2024-02-21T05:14:45;16.80;62.20
43884;DHT22;71973;52.018;5.810;2024-02-21T05:17:11;16.80;62.80
43884;DHT22;71973;52.018;5.810;2024-02-21T05:19:36;16.70;62.20
43884;DHT22;71973;52.018;5.810;2024-02-21T05:22:02;16.70;62.10
43884;DHT22;71973;52.018;5.810;2024-02-21T05:24:27;16.70;62.90
43884;DHT22;71973;52.018;5.810;2024-02-21T05:26:55;16.80;62.30
43884;DHT22;71973;52.018;5.810;2024-02-21T05:29:20;16.70;62.20
43884;DHT22;71973;52.018;5.810;2024-02-21T05:34:18;16.60;62.10
43884;DHT22;71973;52.018;5.810;2024-02-21T05:36:44;16.70;62.20
43884;DHT22;71973;52.018;5.810;2024-02-21T05:39:10;16.70;62.20
43884;DHT22;71973;52.018;5.810;2024-02-21T05:41:35;16.70;62.20
43884;DHT22;71973;52.018;5.810;2024-02-21T05:44:01;16.60;62.20
43884;DHT22;71973;52.018;5.810;2024-02-21T05:46:27;16.80;62.30
43884;DHT22;71973;52.018;5.810;2024-02-21T05:48:53;16.70;62.20
43884;DHT22;71973;52.018;5.810;2024-02-21T05:51:18;16.60;62.20
43884;DHT22;71973;52.018;5.810;2024-02-21T05:53:44;16.70;62.30
43884;DHT22;71973;52.018;5.810;2024-02-21T05:56:13;16.60;62.20
43884;DHT22;71973;52.018;5.810;2024-02-21T05:58:39;16.60;62.20
43884;DHT22;71973;52.018;5.810;2024-02-21T06:01:05;16.60;62.40
43884;DHT22;71973;52.018;5.810;2024-02-21T06:03:32;16.60;62.20
43884;DHT22;71973;52.018;5.810;2024-02-21T06:06:01;16.60;62.10
43884;DHT22;71973;52.018;5.810;2024-02-21T06:08:27;16.60;62.20
43884;DHT22;71973;52.018;5.810;2024-02-21T06:10:52;16.60;62.20
43884;DHT22;71973;52.018;5.810;2024-02-21T06:13:22;16.60;62.20
43884;DHT22;71973;52.018;5.810;2024-02-21T06:15:48;16.60;62.20
43884;DHT22;71973;52.018;5.810;2024-02-21T06:18:14;16.60;62.20
43884;DHT22;71973;52.018;5.810;2024-02-21T06:20:40;16.60;62.20
43884;DHT22;71973;52.018;5.810;2024-02-21T06:23:06;16.60;62.20
43884;DHT22;71973;52.018;5.810;2024-02-21T06:25:32;16.60;62.20
43884;DHT22;71973;52.018;5.810;2024-02-21T06:27:57;16.60;62.20
43884;DHT22;71973;52.018;5.810;2024-02-21T06:30:23;16.50;62.10
43884;DHT22;71973;52.018;5.810;2024-02-21T06:32:48;16.60;62.20
43884;DHT22;71973;52.018;5.810;2024-02-21T06:35:14;16.60;62.10
43884;DHT22;71973;52.018;5.810;2024-02-21T06:37:40;16.60;62.10
43884;DHT22;71973;52.018;5.810;2024-02-21T06:40:06;16.50;62.10
43884;DHT22;71973;52.018;5.810;2024-02-21T06:42:32;16.50;62.20
43884;DHT22;71973;52.018;5.810;2024-02-21T06:44:57;16.50;62.10
43884;DHT22;71973;52.018;5.810;2024-02-21T06:47:23;16.50;62.10
43884;DHT22;71973;52.018;5.810;2024-02-21T06:49:49;16.50;62.10
43884;DHT22;71973;52.018;5.810;2024-02-21T06:52:18;16.50;62.10
43884;DHT22;71973;52.018;5.810;2024-02-21T06:54:46;16.50;62.10
43884;DHT22;71973;52.018;5.810;2024-02-21T06:57:12;16.50;62.10
43884;DHT22;71973;52.018;5.810;2024-02-21T06:59:38;16.50;62.30
43884;DHT22;71973;52.018;5.810;2024-02-21T07:02:04;16.60;62.40
43884;DHT22;71973;52.018;5.810;2024-02-21T07:04:29;16.50;62.30
43884;DHT22;71973;52.018;5.810;2024-02-21T07:06:55;16.40;62.30
43884;DHT22;71973;52.018;5.810;2024-02-21T07:09:20;16.50;62.40
43884;DHT22;71973;52.018;5.810;2024-02-21T07:11:46;16.50;62.50
43884;DHT22;71973;52.018;5.810;2024-02-21T07:14:11;16.50;62.50
43884;DHT22;71973;52.018;5.810;2024-02-21T07:16:37;16.50;62.40
43884;DHT22;71973;52.018;5.810;2024-02-21T07:19:02;16.40;62.40
43884;DHT22;71973;52.018;5.810;2024-02-21T07:21:28;16.40;62.40
43884;DHT22;71973;52.018;5.810;2024-02-21T07:23:53;16.40;62.40
43884;DHT22;71973;52.018;5.810;2024-02-21T07:26:19;16.40;62.40
43884;DHT22;71973;52.018;5.810;2024-02-21T07:28:45;16.40;62.50
43884;DHT22;71973;52.018;5.810;2024-02-21T07:31:11;16.50;62.60
43884;DHT22;71973;52.018;5.810;2024-02-21T07:33:37;16.50;62.50
43884;DHT22;71973;52.018;5.810;2024-02-21T07:36:06;16.40;62.40
43884;DHT22;71973;52.018;5.810;2024-02-21T07:38:32;16.40;63.30
43884;DHT22;71973;52.018;5.810;2024-02-21T07:40:58;16.50;63.00
43884;DHT22;71973;52.018;5.810;2024-02-21T07:43:23;16.50;62.70
43884;DHT22;71973;52.018;5.810;2024-02-21T07:45:49;16.50;62.80
43884;DHT22;71973;52.018;5.810;2024-02-21T07:48:14;16.40;62.60
43884;DHT22;71973;52.018;5.810;2024-02-21T07:50:40;16.40;62.60
43884;DHT22;71973;52.018;5.810;2024-02-21T07:53:05;16.40;62.70
43884;DHT22;71973;52.018;5.810;2024-02-21T07:55:31;16.40;62.80
43884;DHT22;71973;52.018;5.810;2024-02-21T07:57:57;16.40;62.80
43884;DHT22;71973;52.018;5.810;2024-02-21T08:00:22;16.40;62.80
43884;DHT22;71973;52.018;5.810;2024-02-21T08:02:48;16.30;62.70
43884;DHT22;71973;52.018;5.810;2024-02-21T08:05:14;16.40;62.80
43884;DHT22;71973;52.018;5.810;2024-02-21T08:07:40;16.30;62.70
43884;DHT22;71973;52.018;5.810;2024-02-21T08:10:06;16.30;62.70
43884;DHT22;71973;52.018;5.810;2024-02-21T08:12:35;16.30;62.70
43884;DHT22;71973;52.018;5.810;2024-02-21T08:15:01;16.30;62.70
43884;DHT22;71973;52.018;5.810;2024-02-21T08:17:28;16.20;62.70
43884;DHT22;71973;52.018;5.810;2024-02-21T08:19:54;16.30;62.70
43884;DHT22;71973;52.018;5.810;2024-02-21T08:22:20;16.30;62.80
43884;DHT22;71973;52.018;5.810;2024-02-21T08:24:45;16.20;62.90
43884;DHT22;71973;52.018;5.810;2024-02-21T08:27:11;16.30;62.90
43884;DHT22;71973;52.018;5.810;2024-02-21T08:29:37;16.30;62.90
43884;DHT22;71973;52.018;5.810;2024-02-21T08:32:02;16.30;63.00
43884;DHT22;71973;52.018;5.810;2024-02-21T08:34:28;16.30;63.10
43884;DHT22;71973;52.018;5.810;2024-02-21T08:36:55;16.20;62.90
43884;DHT22;71973;52.018;5.810;2024-02-21T08:39:21;16.30;62.90
43884;DHT22;71973;52.018;5.810;2024-02-21T08:41:47;16.30;62.90
43884;DHT22;71973;52.018;5.810;2024-02-21T08:44:12;16.20;62.80
43884;DHT22;71973;52.018;5.810;2024-02-21T08:46:38;16.40;62.90
43884;DHT22;71973;52.018;5.810;2024-02-21T08:49:06;16.20;63.00
43884;DHT22;71973;52.018;5.810;2024-02-21T08:51:31;16.20;63.00
43884;DHT22;71973;52.018;5.810;2024-02-21T08:53:58;16.20;63.00
43884;DHT22;71973;52.018;5.810;2024-02-21T08:56:24;16.20;63.00
43884;DHT22;71973;52.018;5.810;2024-02-21T08:58:49;16.20;62.90
43884;DHT22;71973;52.018;5.810;2024-02-21T09:01:15;16.20;62.90
43884;DHT22;71973;52.018;5.810;2024-02-21T09:03:41;16.20;62.80
43884;DHT22;71973;52.018;5.810;2024-02-21T09:06:07;16.20;62.90
43884;DHT22;71973;52.018;5.810;2024-02-21T09:08:33;16.20;62.90
43884;DHT22;71973;52.018;5.810;2024-02-21T09:11:02;16.20;62.90
43884;DHT22;71973;52.018;5.810;2024-02-21T09:13:28;16.20;62.80
43884;DHT22;71973;52.018;5.810;2024-02-21T09:15:54;16.30;62.80
43884;DHT22;71973;52.018;5.810;2024-02-21T09:18:19;16.20;62.80
43884;DHT22;71973;52.018;5.810;2024-02-21T09:20:45;16.20;62.70
43884;DHT22;71973;52.018;5.810;2024-02-21T09:23:11;16.20;62.80
43884;DHT22;71973;52.018;5.810;2024-02-21T09:25:37;16.40;64.30
43884;DHT22;71973;52.018;5.810;2024-02-21T09:28:03;16.70;63.60
43884;DHT22;71973;52.018;5.810;2024-02-21T09:30:29;16.90;63.30
43884;DHT22;71973;52.018;5.810;2024-02-21T09:32:55;16.90;63.10
43884;DHT22;71973;52.018;5.810;2024-02-21T09:35:24;17.00;62.90
43884;DHT22;71973;52.018;5.810;2024-02-21T09:37:52;17.00;62.70
43884;DHT22;71973;52.018;5.810;2024-02-21T09:40:17;17.00;62.60
43884;DHT22;71973;52.018;5.810;2024-02-21T09:42:44;17.00;62.40
43884;DHT22;71973;52.018;5.810;2024-02-21T09:45:23;17.00;62.40
43884;DHT22;71973;52.018;5.810;2024-02-21T09:50:24;17.10;61.90
43884;DHT22;71973;52.018;5.810;2024-02-21T09:52:52;17.10;62.00
43884;DHT22;71973;52.018;5.810;2024-02-21T09:55:18;17.10;61.80
43884;DHT22;71973;52.018;5.810;2024-02-21T09:57:44;17.20;61.60
43884;DHT22;71973;52.018;5.810;2024-02-21T10:00:10;17.20;61.40
43884;DHT22;71973;52.018;5.810;2024-02-21T10:02:36;17.20;62.00
43884;DHT22;71973;52.018;5.810;2024-02-21T10:05:03;17.20;61.30
43884;DHT22;71973;52.018;5.810;2024-02-21T10:07:30;17.10;61.20
43884;DHT22;71973;52.018;5.810;2024-02-21T10:10:04;17.20;61.20
43884;DHT22;71973;52.018;5.810;2024-02-21T10:12:30;17.10;61.10
43884;DHT22;71973;52.018;5.810;2024-02-21T10:15:05;17.20;61.10
43884;DHT22;71973;52.018;5.810;2024-02-21T10:17:32;17.20;61.10
43884;DHT22;71973;52.018;5.810;2024-02-21T10:20:10;17.20;60.80
43884;DHT22;71973;52.018;5.810;2024-02-21T10:22:38;17.20;60.70
43884;DHT22;71973;52.018;5.810;2024-02-21T10:25:23;17.20;60.60
43884;DHT22;71973;52.018;5.810;2024-02-21T10:27:48;17.20;60.60
43884;DHT22;71973;52.018;5.810;2024-02-21T10:30:14;17.20;60.70
43884;DHT22;71973;52.018;5.810;2024-02-21T10:32:53;17.20;60.60
43884;DHT22;71973;52.018;5.810;2024-02-21T10:35:29;17.20;60.50
43884;DHT22;71973;52.018;5.810;2024-02-21T10:37:56;17.20;60.40
43884;DHT22;71973;52.018;5.810;2024-02-21T10:40:24;17.20;60.40
43884;DHT22;71973;52.018;5.810;2024-02-21T10:42:59;17.30;60.20
43884;DHT22;71973;52.018;5.810;2024-02-21T10:45:30;17.20;60.20
43884;DHT22;71973;52.018;5.810;2024-02-21T10:48:11;17.20;60.20
43884;DHT22;71973;52.018;5.810;2024-02-21T10:53:29;17.30;60.20
43884;DHT22;71973;52.018;5.810;2024-02-21T10:56:09;17.20;60.20
43884;DHT22;71973;52.018;5.810;2024-02-21T10:58:37;17.20;60.10
43884;DHT22;71973;52.018;5.810;2024-02-21T11:01:03;17.20;60.00
43884;DHT22;71973;52.018;5.810;2024-02-21T11:03:30;17.20;60.00
43884;DHT22;71973;52.018;5.810;2024-02-21T11:05:56;17.30;60.00
43884;DHT22;71973;52.018;5.810;2024-02-21T11:08:22;17.20;59.90
43884;DHT22;71973;52.018;5.810;2024-02-21T11:10:50;17.30;59.90
43884;DHT22;71973;52.018;5.810;2024-02-21T11:13:15;17.20;59.90
43884;DHT22;71973;52.018;5.810;2024-02-21T11:15:41;17.30;59.90
43884;DHT22;71973;52.018;5.810;2024-02-21T11:18:07;17.30;59.80
43884;DHT22;71973;52.018;5.810;2024-02-21T11:20:36;17.30;59.70
43884;DHT22;71973;52.018;5.810;2024-02-21T11:23:02;17.30;59.80
43884;DHT22;71973;52.018;5.810;2024-02-21T11:25:28;17.30;59.80
43884;DHT22;71973;52.018;5.810;2024-02-21T11:28:02;17.30;59.80
43884;DHT22;71973;52.018;5.810;2024-02-21T11:30:30;17.30;59.70
43884;DHT22;71973;52.018;5.810;2024-02-21T11:33:03;17.30;59.70
43884;DHT22;71973;52.018;5.810;2024-02-21T11:35:33;17.30;59.70
43884;DHT22;71973;52.018;5.810;2024-02-21T11:38:12;17.30;59.70
43884;DHT22;71973;52.018;5.810;2024-02-21T11:40:45;17.20;59.80
43884;DHT22;71973;52.018;5.810;2024-02-21T11:43:10;17.10;60.10
43884;DHT22;71973;52.018;5.810;2024-02-21T11:45:36;16.90;60.50
43884;DHT22;71973;52.018;5.810;2024-02-21T11:48:02;16.80;60.70
43884;DHT22;71973;52.018;5.810;2024-02-21T11:50:29;16.70;60.80
43884;DHT22;71973;52.018;5.810;2024-02-21T11:52:56;16.70;61.00
43884;DHT22;71973;52.018;5.810;2024-02-21T11:55:22;16.70;61.00
43884;DHT22;71973;52.018;5.810;2024-02-21T11:57:48;16.60;61.10
43884;DHT22;71973;52.018;5.810;2024-02-21T12:00:15;16.60;61.20
43884;DHT22;71973;52.018;5.810;2024-02-21T12:02:42;16.60;61.30
43884;DHT22;71973;52.018;5.810;2024-02-21T12:05:08;16.50;61.20
43884;DHT22;71973;52.018;5.810;2024-02-21T12:07:33;16.50;61.30
43884;DHT22;71973;52.018;5.810;2024-02-21T12:10:01;16.70;62.40
43884;DHT22;71973;52.018;5.810;2024-02-21T12:12:28;16.90;61.90
43884;DHT22;71973;52.018;5.810;2024-02-21T12:14:57;16.70;61.80
43884;DHT22;71973;52.018;5.810;2024-02-21T12:17:25;16.70;61.70
43884;DHT22;71973;52.018;5.810;2024-02-21T12:19:51;16.60;61.40
43884;DHT22;71973;52.018;5.810;2024-02-21T12:22:19;16.60;61.80
43884;DHT22;71973;52.018;5.810;2024-02-21T12:24:45;16.60;61.70
43884;DHT22;71973;52.018;5.810;2024-02-21T12:27:13;16.50;61.60
43884;DHT22;71973;52.018;5.810;2024-02-21T12:29:39;16.50;61.60
43884;DHT22;71973;52.018;5.810;2024-02-21T12:32:05;16.40;61.60
43884;DHT22;71973;52.018;5.810;2024-02-21T12:34:30;16.40;61.70
43884;DHT22;71973;52.018;5.810;2024-02-21T12:36:58;16.30;61.70
43884;DHT22;71973;52.018;5.810;2024-02-21T12:39:23;16.40;61.70
43884;DHT22;71973;52.018;5.810;2024-02-21T12:41:49;16.40;61.70
43884;DHT22;71973;52.018;5.810;2024-02-21T12:44:15;16.30;61.60
43884;DHT22;71973;52.018;5.810;2024-02-21T12:46:42;16.40;61.70
43884;DHT22;71973;52.018;5.810;2024-02-21T12:49:08;16.30;61.60
43884;DHT22;71973;52.018;5.810;2024-02-21T12:51:34;16.30;61.60
43884;DHT22;71973;52.018;5.810;2024-02-21T12:54:00;16.30;61.70
43884;DHT22;71973;52.018;5.810;2024-02-21T12:56:26;16.30;61.70
43884;DHT22;71973;52.018;5.810;2024-02-21T12:58:52;16.30;61.70
43884;DHT22;71973;52.018;5.810;2024-02-21T13:01:18;16.30;61.70
43884;DHT22;71973;52.018;5.810;2024-02-21T13:03:44;16.40;64.00
43884;DHT22;71973;52.018;5.810;2024-02-21T13:06:09;16.70;63.70
43884;DHT22;71973;52.018;5.810;2024-02-21T13:08:36;16.90;62.90
43884;DHT22;71973;52.018;5.810;2024-02-21T13:11:03;17.00;62.60
43884;DHT22;71973;52.018;5.810;2024-02-21T13:13:29;16.90;62.80
43884;DHT22;71973;52.018;5.810;2024-02-21T13:15:54;16.60;63.20
43884;DHT22;71973;52.018;5.810;2024-02-21T13:18:20;16.50;63.30
43884;DHT22;71973;52.018;5.810;2024-02-21T13:20:46;16.40;63.20
43884;DHT22;71973;52.018;5.810;2024-02-21T13:23:11;16.40;63.00
43884;DHT22;71973;52.018;5.810;2024-02-21T13:25:38;16.40;62.90
43884;DHT22;71973;52.018;5.810;2024-02-21T13:28:04;16.30;62.80
43884;DHT22;71973;52.018;5.810;2024-02-21T13:30:29;16.20;62.80
43884;DHT22;71973;52.018;5.810;2024-02-21T13:32:55;16.20;62.80
43884;DHT22;71973;52.018;5.810;2024-02-21T13:35:20;16.30;62.70
43884;DHT22;71973;52.018;5.810;2024-02-21T13:37:46;16.20;62.60
43884;DHT22;71973;52.018;5.810;2024-02-21T13:40:12;16.10;62.60
43884;DHT22;71973;52.018;5.810;2024-02-21T13:42:39;16.20;62.60
43884;DHT22;71973;52.018;5.810;2024-02-21T13:45:06;16.20;62.60
43884;DHT22;71973;52.018;5.810;2024-02-21T13:47:33;16.10;62.50
43884;DHT22;71973;52.018;5.810;2024-02-21T13:49:58;16.10;62.60
43884;DHT22;71973;52.018;5.810;2024-02-21T13:52:24;16.10;62.50
43884;DHT22;71973;52.018;5.810;2024-02-21T13:54:52;16.00;62.50
43884;DHT22;71973;52.018;5.810;2024-02-21T13:57:17;16.00;62.50
43884;DHT22;71973;52.018;5.810;2024-02-21T13:59:43;16.00;62.50
43884;DHT22;71973;52.018;5.810;2024-02-21T14:02:09;16.00;62.40
43884;DHT22;71973;52.018;5.810;2024-02-21T14:04:35;16.00;62.40
43884;DHT22;71973;52.018;5.810;2024-02-21T14:07:01;16.00;62.50
43884;DHT22;71973;52.018;5.810;2024-02-21T14:09:27;16.00;62.50
43884;DHT22;71973;52.018;5.810;2024-02-21T14:11:55;16.00;62.40
43884;DHT22;71973;52.018;5.810;2024-02-21T14:14:20;16.00;62.40
43884;DHT22;71973;52.018;5.810;2024-02-21T14:16:46;15.90;62.30
43884;DHT22;71973;52.018;5.810;2024-02-21T14:19:13;15.90;62.20
43884;DHT22;71973;52.018;5.810;2024-02-21T14:21:39;16.00;62.30
43884;DHT22;71973;52.018;5.810;2024-02-21T14:24:05;16.00;62.30
43884;DHT22;71973;52.018;5.810;2024-02-21T14:26:31;15.90;62.20
43884;DHT22;71973;52.018;5.810;2024-02-21T14:28:57;15.90;62.10
43884;DHT22;71973;52.018;5.810;2024-02-21T14:31:23;15.90;62.10
43884;DHT22;71973;52.018;5.810;2024-02-21T14:33:48;15.90;62.20
43884;DHT22;71973;52.018;5.810;2024-02-21T14:36:14;15.90;62.50
43884;DHT22;71973;52.018;5.810;2024-02-21T14:38:41;15.90;62.20
43884;DHT22;71973;52.018;5.810;2024-02-21T14:41:07;16.00;62.30
43884;DHT22;71973;52.018;5.810;2024-02-21T14:43:32;15.90;62.10
43884;DHT22;71973;52.018;5.810;2024-02-21T14:46:00;15.90;62.10
43884;DHT22;71973;52.018;5.810;2024-02-21T14:48:25;15.80;62.10
43884;DHT22;71973;52.018;5.810;2024-02-21T14:50:54;15.90;62.10
43884;DHT22;71973;52.018;5.810;2024-02-21T14:53:19;15.90;62.10
43884;DHT22;71973;52.018;5.810;2024-02-21T14:55:45;16.00;62.30
43884;DHT22;71973;52.018;5.810;2024-02-21T14:58:10;15.80;62.20
43884;DHT22;71973;52.018;5.810;2024-02-21T15:00:36;15.80;62.30
43884;DHT22;71973;52.018;5.810;2024-02-21T15:03:02;15.80;62.30
43884;DHT22;71973;52.018;5.810;2024-02-21T15:05:28;15.80;62.30
43884;DHT22;71973;52.018;5.810;2024-02-21T15:07:56;15.80;62.30
43884;DHT22;71973;52.018;5.810;2024-02-21T15:10:23;15.70;62.20
43884;DHT22;71973;52.018;5.810;2024-02-21T15:12:48;15.70;62.20
43884;DHT22;71973;52.018;5.810;2024-02-21T15:15:14;15.70;62.20
43884;DHT22;71973;52.018;5.810;2024-02-21T15:17:40;15.80;62.30
43884;DHT22;71973;52.018;5.810;2024-02-21T15:20:06;15.70;62.20
43884;DHT22;71973;52.018;5.810;2024-02-21T15:22:35;15.70;62.20
43884;DHT22;71973;52.018;5.810;2024-02-21T15:25:04;15.70;62.20
43884;DHT22;71973;52.018;5.810;2024-02-21T15:27:30;15.70;62.20
43884;DHT22;71973;52.018;5.810;2024-02-21T15:29:56;15.60;62.20
43884;DHT22;71973;52.018;5.810;2024-02-21T15:32:23;15.80;62.20